createdAt,value
2023-05-06T00:00:15.774Z,40.12
2023-05-06T00:01:15.755Z,49.15
2023-05-06T00:02:15.794Z,45.76
2023-05-06T00:03:15.843Z,36.25
2023-05-06T00:04:15.741Z,34.64
2023-05-06T00:05:15.730Z,34.97
2023-05-06T00:06:15.713Z,42.54
2023-05-06T00:07:15.775Z,40.44
2023-05-06T00:08:15.729Z,41.09
2023-05-06T00:09:15.691Z,49.15
2023-05-06T00:10:15.720Z,34.64
2023-05-06T00:11:15.712Z,35.13
2023-05-06T00:12:15.696Z,38.03
2023-05-06T00:13:15.733Z,36.25
2023-05-06T00:14:15.651Z,37.87
2023-05-06T00:15:15.639Z,37.22
2023-05-06T00:16:15.636Z,39.96
2023-05-06T00:17:15.664Z,50.92
2023-05-06T00:18:15.619Z,39.32
2023-05-06T00:19:15.613Z,41.41
2023-05-06T00:20:15.610Z,41.25
2023-05-06T00:21:15.595Z,40.44
2023-05-06T00:22:15.604Z,34.64
2023-05-06T00:23:15.646Z,36.74
2023-05-06T00:24:15.576Z,37.87
2023-05-06T00:25:15.565Z,35.61
2023-05-06T00:26:15.558Z,36.09
2023-05-06T00:27:15.576Z,40.28
2023-05-06T00:28:15.547Z,38.03
2023-05-06T00:29:15.533Z,36.90
2023-05-06T00:30:15.531Z,39.96
2023-05-06T00:31:15.575Z,41.25
2023-05-06T00:32:15.536Z,38.19
2023-05-06T00:33:15.508Z,40.28
2023-05-06T00:34:15.484Z,38.51
2023-05-06T00:35:15.489Z,40.93
2023-05-06T00:36:15.506Z,46.73
2023-05-06T00:37:15.472Z,46.57
2023-05-06T00:38:15.475Z,36.09
2023-05-06T00:39:15.556Z,35.13
2023-05-06T00:40:15.447Z,35.45
2023-05-06T00:41:15.504Z,35.61
2023-05-06T00:42:15.437Z,36.25
2023-05-06T00:43:15.452Z,35.77
2023-05-06T00:44:15.412Z,40.28
2023-05-06T00:45:15.447Z,37.38
2023-05-06T00:46:15.483Z,36.25
2023-05-06T00:47:15.387Z,41.57
2023-05-06T00:48:15.403Z,35.61
2023-05-06T00:49:15.380Z,36.25
2023-05-06T00:50:16.298Z,37.22
2023-05-06T00:51:15.377Z,39.32
2023-05-06T00:52:15.357Z,42.06
2023-05-06T00:53:15.349Z,40.28
2023-05-06T00:54:15.335Z,37.71
2023-05-06T00:55:15.424Z,35.13
2023-05-06T00:56:15.327Z,34.80
2023-05-06T00:57:15.309Z,39.96
2023-05-06T00:58:15.302Z,38.83
2023-05-06T00:59:15.327Z,39.80
2023-05-06T01:00:15.319Z,40.77
2023-05-06T01:01:15.341Z,39.64
2023-05-06T01:02:15.333Z,42.06
2023-05-06T01:03:15.367Z,37.22
2023-05-06T01:04:15.292Z,36.74
2023-05-06T01:05:15.278Z,41.57
2023-05-06T01:06:15.257Z,41.73
2023-05-06T01:07:15.237Z,36.90
2023-05-06T01:08:15.233Z,43.99
2023-05-06T01:09:15.246Z,46.25
2023-05-06T01:10:15.213Z,38.99
2023-05-06T01:11:15.892Z,40.12
2023-05-06T01:12:16.201Z,46.73
2023-05-06T01:13:15.268Z,36.25
2023-05-06T01:14:15.210Z,35.13
2023-05-06T01:15:15.179Z,43.51
2023-05-06T01:16:15.170Z,46.08
2023-05-06T01:17:15.231Z,42.06
2023-05-06T01:18:15.167Z,41.57
2023-05-06T01:19:16.184Z,44.96
2023-05-06T01:20:15.146Z,36.74
2023-05-06T01:21:15.138Z,40.44
2023-05-06T01:22:15.124Z,40.28
2023-05-06T01:23:15.151Z,41.57
2023-05-06T01:24:15.104Z,42.70
2023-05-06T01:25:15.095Z,43.67
2023-05-06T01:26:15.094Z,43.18
2023-05-06T01:27:15.104Z,39.64
2023-05-06T01:28:15.097Z,45.12
2023-05-06T01:29:15.065Z,40.44
2023-05-06T01:30:15.063Z,39.32
2023-05-06T01:31:15.082Z,46.73
2023-05-06T01:32:15.064Z,44.47
2023-05-06T01:33:15.065Z,40.44
2023-05-06T01:34:15.022Z,40.61
2023-05-06T01:35:16.009Z,38.83
2023-05-06T01:36:16.025Z,43.34
2023-05-06T01:37:15.024Z,43.02
2023-05-06T01:38:15.002Z,35.77
2023-05-06T01:39:14.982Z,35.61
2023-05-06T01:40:14.982Z,40.28
2023-05-06T01:41:14.968Z,41.25
2023-05-06T01:42:15.012Z,48.02
2023-05-06T01:43:14.959Z,40.93
2023-05-06T01:44:14.989Z,35.93
2023-05-06T01:45:14.942Z,35.13
2023-05-06T01:46:14.992Z,37.06
2023-05-06T01:47:14.952Z,39.96
2023-05-06T01:48:14.919Z,34.64
2023-05-06T01:49:14.914Z,34.48
2023-05-06T01:50:14.902Z,34.97
2023-05-06T01:51:14.923Z,35.61
2023-05-06T01:52:14.898Z,36.25
2023-05-06T01:53:15.872Z,35.29
2023-05-06T01:54:14.870Z,35.77
2023-05-06T01:55:14.858Z,40.44
2023-05-06T01:56:14.879Z,37.54
2023-05-06T01:57:14.830Z,35.93
2023-05-06T01:58:15.853Z,36.74
2023-05-06T01:59:14.883Z,34.48
2023-05-06T02:00:14.850Z,36.58
2023-05-06T02:01:14.871Z,34.48
2023-05-06T02:02:14.805Z,34.64
2023-05-06T02:03:14.862Z,34.64
2023-05-06T02:04:14.830Z,34.48
2023-05-06T02:05:15.804Z,40.93
2023-05-06T02:06:14.786Z,34.48
2023-05-06T02:07:14.796Z,35.29
2023-05-06T02:08:14.767Z,34.64
2023-05-06T02:09:14.753Z,35.29
2023-05-06T02:10:14.769Z,36.25
2023-05-06T02:11:14.736Z,35.29
2023-05-06T02:12:14.728Z,34.32
2023-05-06T02:13:14.791Z,34.80
2023-05-06T02:14:14.734Z,34.48
2023-05-06T02:15:14.792Z,35.77
2023-05-06T02:16:14.719Z,40.12
2023-05-06T02:17:14.686Z,37.22
2023-05-06T02:18:14.673Z,35.93
2023-05-06T02:19:14.699Z,35.45
2023-05-06T02:20:14.670Z,36.25
2023-05-06T02:21:14.647Z,34.64
2023-05-06T02:22:14.648Z,34.97
2023-05-06T02:23:14.646Z,42.38
2023-05-06T02:24:14.658Z,34.80
2023-05-06T02:25:14.624Z,44.63
2023-05-06T02:26:14.610Z,35.61
2023-05-06T02:27:14.611Z,38.99
2023-05-06T02:28:14.634Z,43.83
2023-05-06T02:29:14.612Z,40.44
2023-05-06T02:30:14.595Z,40.61
2023-05-06T02:31:14.652Z,34.80
2023-05-06T02:32:14.583Z,36.58
2023-05-06T02:33:14.593Z,35.13
2023-05-06T02:34:14.548Z,35.45
2023-05-06T02:35:14.555Z,38.67
2023-05-06T02:36:14.543Z,36.74
2023-05-06T02:37:14.532Z,41.09
2023-05-06T02:38:14.545Z,35.77
2023-05-06T02:39:14.514Z,36.42
2023-05-06T02:40:14.501Z,34.64
2023-05-06T02:41:14.512Z,35.13
2023-05-06T02:42:14.542Z,38.83
2023-05-06T02:43:14.506Z,34.97
2023-05-06T02:44:14.468Z,34.97
2023-05-06T02:45:14.478Z,35.29
2023-05-06T02:46:14.474Z,36.58
2023-05-06T02:47:14.553Z,34.97
2023-05-06T02:48:14.444Z,35.13
2023-05-06T02:49:14.441Z,36.74
2023-05-06T02:50:14.435Z,38.99
2023-05-06T02:51:14.417Z,36.25
2023-05-06T02:52:14.437Z,35.93
2023-05-06T02:53:14.397Z,35.61
2023-05-06T02:54:14.407Z,35.61
2023-05-06T02:55:14.383Z,38.51
2023-05-06T02:56:14.406Z,50.43
2023-05-06T02:57:14.388Z,40.61
2023-05-06T02:58:14.373Z,43.67
2023-05-06T02:59:14.355Z,38.35
2023-05-06T03:00:14.341Z,36.74
2023-05-06T03:01:14.386Z,43.67
2023-05-06T03:02:14.330Z,41.41
2023-05-06T03:03:14.318Z,42.38
2023-05-06T03:04:14.384Z,40.93
2023-05-06T03:05:14.315Z,44.31
2023-05-06T03:06:15.315Z,39.48
2023-05-06T03:07:14.284Z,38.83
2023-05-06T03:08:14.277Z,38.83
2023-05-06T03:09:14.266Z,37.22
2023-05-06T03:10:14.293Z,37.87
2023-05-06T03:11:14.288Z,38.99
2023-05-06T03:12:14.257Z,39.32
2023-05-06T03:13:14.445Z,39.80
2023-05-06T03:14:14.234Z,45.28
2023-05-06T03:15:14.245Z,40.44
2023-05-06T03:16:14.289Z,44.31
2023-05-06T03:17:14.204Z,44.47
2023-05-06T03:18:14.201Z,40.77
2023-05-06T03:19:14.256Z,38.99
2023-05-06T03:20:14.210Z,41.89
2023-05-06T03:21:14.219Z,40.93
2023-05-06T03:22:14.187Z,38.35
2023-05-06T03:23:14.171Z,46.73
2023-05-06T03:24:14.159Z,38.99
2023-05-06T03:25:14.193Z,41.57
2023-05-06T03:26:14.157Z,39.48
2023-05-06T03:27:14.135Z,43.02
2023-05-06T03:28:14.132Z,37.71
2023-05-06T03:29:14.151Z,37.22
2023-05-06T03:30:14.129Z,40.61
2023-05-06T03:31:14.137Z,38.03
2023-05-06T03:32:14.105Z,40.12
2023-05-06T03:33:14.096Z,47.70
2023-05-06T03:34:14.128Z,37.22
2023-05-06T03:35:14.144Z,43.18
2023-05-06T03:36:14.067Z,37.22
2023-05-06T03:37:14.056Z,40.93
2023-05-06T03:38:14.048Z,41.89
2023-05-06T03:39:14.079Z,43.67
2023-05-06T03:40:14.036Z,39.32
2023-05-06T03:41:14.027Z,36.25
2023-05-06T03:42:14.039Z,35.77
2023-05-06T03:43:14.031Z,36.42
2023-05-06T03:44:14.031Z,42.54
2023-05-06T03:45:13.998Z,39.16
2023-05-06T03:46:14.042Z,38.19
2023-05-06T03:47:13.978Z,42.54
2023-05-06T03:48:14.106Z,42.54
2023-05-06T03:49:14.002Z,39.16
2023-05-06T03:50:13.969Z,40.77
2023-05-06T03:51:14.009Z,46.89
2023-05-06T03:52:13.933Z,42.22
2023-05-06T03:53:13.959Z,40.12
2023-05-06T03:54:13.920Z,36.42
2023-05-06T03:55:13.908Z,37.22
2023-05-06T03:56:13.899Z,39.96
2023-05-06T03:57:13.936Z,38.83
2023-05-06T03:58:13.916Z,37.22
2023-05-06T03:59:13.870Z,38.03
2023-05-06T04:00:13.870Z,37.87
2023-05-06T04:01:13.863Z,38.99
2023-05-06T04:02:13.914Z,35.45
2023-05-06T04:03:13.983Z,36.74
2023-05-06T04:04:13.977Z,38.35
2023-05-06T04:05:13.825Z,39.80
2023-05-06T04:06:13.822Z,40.61
2023-05-06T04:07:13.904Z,38.83
2023-05-06T04:08:13.808Z,41.73
2023-05-06T04:09:13.792Z,38.35
2023-05-06T04:10:13.786Z,45.92
2023-05-06T04:11:13.781Z,46.25
2023-05-06T04:12:13.814Z,36.09
2023-05-06T04:13:13.846Z,35.93
2023-05-06T04:14:13.766Z,36.58
2023-05-06T04:15:13.744Z,44.47
2023-05-06T04:16:13.796Z,36.74
2023-05-06T04:17:13.759Z,45.12
2023-05-06T04:18:13.726Z,42.70
2023-05-06T04:19:13.723Z,38.03
2023-05-06T04:20:13.708Z,44.31
2023-05-06T04:21:13.747Z,40.12
2023-05-06T04:22:13.715Z,42.06
2023-05-06T04:23:13.796Z,44.63
2023-05-06T04:24:13.699Z,42.22
2023-05-06T04:25:13.674Z,43.34
2023-05-06T04:26:13.686Z,40.93
2023-05-06T04:27:13.656Z,43.02
2023-05-06T04:28:13.662Z,38.83
2023-05-06T04:29:13.634Z,41.89
2023-05-06T04:30:13.659Z,38.35
2023-05-06T04:31:13.673Z,48.82
2023-05-06T04:32:13.633Z,41.25
2023-05-06T04:33:13.658Z,40.77
2023-05-06T04:34:13.604Z,37.87
2023-05-06T04:35:13.615Z,39.48
2023-05-06T04:36:13.589Z,40.12
2023-05-06T04:37:13.574Z,40.28
2023-05-06T04:38:13.568Z,41.41
2023-05-06T04:39:13.565Z,47.53
2023-05-06T04:40:13.570Z,46.89
2023-05-06T04:41:13.548Z,45.76
2023-05-06T04:42:13.537Z,48.50
2023-05-06T04:43:13.530Z,49.79
2023-05-06T04:44:13.548Z,48.02
2023-05-06T04:45:13.542Z,51.72
2023-05-06T04:46:13.538Z,46.57
2023-05-06T04:47:13.493Z,53.82
2023-05-06T04:48:13.496Z,42.54
2023-05-06T04:49:13.539Z,44.96
2023-05-06T04:50:13.468Z,45.44
2023-05-06T04:51:13.465Z,46.41
2023-05-06T04:52:13.458Z,56.56
2023-05-06T04:53:13.453Z,45.76
2023-05-06T04:54:13.461Z,49.31
2023-05-06T04:55:13.442Z,48.02
2023-05-06T04:56:13.420Z,45.60
2023-05-06T04:57:13.445Z,42.38
2023-05-06T04:58:13.407Z,38.99
2023-05-06T04:59:13.428Z,39.48
2023-05-06T05:00:13.410Z,47.21
2023-05-06T05:01:13.422Z,44.15
2023-05-06T05:02:13.384Z,44.47
2023-05-06T05:03:13.504Z,45.12
2023-05-06T05:04:13.390Z,42.86
2023-05-06T05:05:13.353Z,41.41
2023-05-06T05:06:13.347Z,42.06
2023-05-06T05:07:13.328Z,39.16
2023-05-06T05:08:14.361Z,42.06
2023-05-06T05:09:13.327Z,45.28
2023-05-06T05:10:13.313Z,43.34
2023-05-06T05:11:13.306Z,39.64
2023-05-06T05:12:13.311Z,44.63
2023-05-06T05:13:13.358Z,46.08
2023-05-06T05:14:13.277Z,42.54
2023-05-06T05:15:14.277Z,45.12
2023-05-06T05:16:13.269Z,45.92
2023-05-06T05:17:13.306Z,45.44
2023-05-06T05:18:13.284Z,44.63
2023-05-06T05:19:13.245Z,43.02
2023-05-06T05:20:13.236Z,44.63
2023-05-06T05:21:13.233Z,50.92
2023-05-06T05:22:13.271Z,44.15
2023-05-06T05:23:13.206Z,47.86
2023-05-06T05:24:13.203Z,42.22
2023-05-06T05:25:13.330Z,45.44
2023-05-06T05:26:13.181Z,45.12
2023-05-06T05:27:13.264Z,43.83
2023-05-06T05:28:13.169Z,44.79
2023-05-06T05:29:13.161Z,46.89
2023-05-06T05:30:13.156Z,45.76
2023-05-06T05:31:13.196Z,49.15
2023-05-06T05:32:13.164Z,43.34
2023-05-06T05:33:13.148Z,43.99
2023-05-06T05:34:13.119Z,44.15
2023-05-06T05:35:13.111Z,44.63
2023-05-06T05:36:13.119Z,46.73
2023-05-06T05:37:13.149Z,47.70
2023-05-06T05:38:13.088Z,46.57
2023-05-06T05:39:13.081Z,47.70
2023-05-06T05:40:13.078Z,45.60
2023-05-06T05:41:14.034Z,51.24
2023-05-06T05:42:13.061Z,48.18
2023-05-06T05:43:13.163Z,48.02
2023-05-06T05:44:13.045Z,44.96
2023-05-06T05:45:13.066Z,47.21
2023-05-06T05:46:13.077Z,49.47
2023-05-06T05:47:13.020Z,45.60
2023-05-06T05:48:13.003Z,51.24
2023-05-06T05:49:13.998Z,47.70
2023-05-06T05:50:13.050Z,45.92
2023-05-06T05:51:12.988Z,46.08
2023-05-06T05:52:12.982Z,44.31
2023-05-06T05:53:12.976Z,45.28
2023-05-06T05:54:12.964Z,43.02
2023-05-06T05:55:12.983Z,45.12
2023-05-06T05:56:12.961Z,45.76
2023-05-06T05:57:12.938Z,46.89
2023-05-06T05:58:12.930Z,42.70
2023-05-06T05:59:12.951Z,46.25
2023-05-06T06:00:13.765Z,44.15
2023-05-06T06:01:13.909Z,43.18
2023-05-06T06:02:12.898Z,41.41
2023-05-06T06:03:12.989Z,43.34
2023-05-06T06:04:12.995Z,45.60
2023-05-06T06:05:12.888Z,48.82
2023-05-06T06:06:12.869Z,44.47
2023-05-06T06:07:12.861Z,44.79
2023-05-06T06:08:12.857Z,47.21
2023-05-06T06:09:12.871Z,46.25
2023-05-06T06:10:12.845Z,45.92
2023-05-06T06:11:12.833Z,44.31
2023-05-06T06:12:12.826Z,45.44
2023-05-06T06:13:12.877Z,49.79
2023-05-06T06:14:12.838Z,43.34
2023-05-06T06:15:13.013Z,44.63
2023-05-06T06:16:12.825Z,42.38
2023-05-06T06:17:12.780Z,48.34
2023-05-06T06:18:12.805Z,40.77
2023-05-06T06:19:12.765Z,41.25
2023-05-06T06:20:12.772Z,47.86
2023-05-06T06:21:12.752Z,38.51
2023-05-06T06:22:12.754Z,44.96
2023-05-06T06:23:12.761Z,40.93
2023-05-06T06:24:12.747Z,41.09
2023-05-06T06:25:12.822Z,43.67
2023-05-06T06:26:12.705Z,44.96
2023-05-06T06:27:12.889Z,45.92
2023-05-06T06:28:12.720Z,46.41
2023-05-06T06:29:12.698Z,41.09
2023-05-06T06:30:12.688Z,48.66
2023-05-06T06:31:12.772Z,46.25
2023-05-06T06:32:12.846Z,39.64
2023-05-06T06:33:12.658Z,43.83
2023-05-06T06:34:12.653Z,46.41
2023-05-06T06:35:12.645Z,44.79
2023-05-06T06:36:12.639Z,42.86
2023-05-06T06:37:12.658Z,41.25
2023-05-06T06:38:12.636Z,41.57
2023-05-06T06:39:12.620Z,43.02
2023-05-06T06:40:12.654Z,48.34
2023-05-06T06:41:12.622Z,50.92
2023-05-06T06:42:12.622Z,47.86
2023-05-06T06:43:12.590Z,44.15
2023-05-06T06:44:12.584Z,43.99
2023-05-06T06:45:12.645Z,45.12
2023-05-06T06:46:12.616Z,46.89
2023-05-06T06:47:12.577Z,41.73
2023-05-06T06:48:12.585Z,43.83
2023-05-06T06:49:12.541Z,48.98
2023-05-06T06:50:12.557Z,46.25
2023-05-06T06:51:12.564Z,44.96
2023-05-06T06:52:12.519Z,43.83
2023-05-06T06:53:12.511Z,50.76
2023-05-06T06:54:12.501Z,48.98
2023-05-06T06:55:12.749Z,45.76
2023-05-06T06:56:12.519Z,46.25
2023-05-06T06:57:12.482Z,43.67
2023-05-06T06:58:12.506Z,44.63
2023-05-06T06:59:12.462Z,43.02
2023-05-06T07:00:12.498Z,43.34
2023-05-06T07:01:12.480Z,44.15
2023-05-06T07:02:12.445Z,42.22
2023-05-06T07:03:12.438Z,44.31
2023-05-06T07:04:12.447Z,46.89
2023-05-06T07:05:12.736Z,42.22
2023-05-06T07:06:12.421Z,43.83
2023-05-06T07:07:12.409Z,47.53
2023-05-06T07:08:12.412Z,42.70
2023-05-06T07:09:12.399Z,45.60
2023-05-06T07:10:12.409Z,44.31
2023-05-06T07:11:12.378Z,47.05
2023-05-06T07:12:12.421Z,47.86
2023-05-06T07:13:12.388Z,43.34
2023-05-06T07:14:12.359Z,53.17
2023-05-06T07:15:12.561Z,48.82
2023-05-06T07:16:12.344Z,48.02
2023-05-06T07:17:12.373Z,44.31
2023-05-06T07:18:12.388Z,46.41
2023-05-06T07:19:12.381Z,45.44
2023-05-06T07:20:12.349Z,49.15
2023-05-06T07:21:12.316Z,50.27
2023-05-06T07:22:12.309Z,44.63
2023-05-06T07:23:12.290Z,46.73
2023-05-06T07:24:12.324Z,43.51
2023-05-06T07:25:12.404Z,44.79
2023-05-06T07:26:12.284Z,45.76
2023-05-06T07:27:12.267Z,48.02
2023-05-06T07:28:12.263Z,43.34
2023-05-06T07:29:12.281Z,43.18
2023-05-06T07:30:12.277Z,49.79
2023-05-06T07:31:12.273Z,49.47
2023-05-06T07:32:12.239Z,46.08
2023-05-06T07:33:12.230Z,46.89
2023-05-06T07:34:12.249Z,48.34
2023-05-06T07:35:12.490Z,46.25
2023-05-06T07:36:12.208Z,44.47
2023-05-06T07:37:12.213Z,48.34
2023-05-06T07:38:12.201Z,45.44
2023-05-06T07:39:12.218Z,43.51
2023-05-06T07:40:12.183Z,49.15
2023-05-06T07:41:12.173Z,46.41
2023-05-06T07:42:12.178Z,48.18
2023-05-06T07:43:12.161Z,47.53
2023-05-06T07:44:12.176Z,45.12
2023-05-06T07:45:12.304Z,48.82
2023-05-06T07:46:12.175Z,53.17
2023-05-06T07:47:12.188Z,50.92
2023-05-06T07:48:12.191Z,47.21
2023-05-06T07:49:12.144Z,43.83
2023-05-06T07:50:12.107Z,47.86
2023-05-06T07:51:12.161Z,46.89
2023-05-06T07:52:12.092Z,49.95
2023-05-06T07:53:12.117Z,46.57
2023-05-06T07:54:12.076Z,50.60
2023-05-06T07:55:12.286Z,45.44
2023-05-06T07:56:12.079Z,48.18
2023-05-06T07:57:12.066Z,43.83
2023-05-06T07:58:12.127Z,49.63
2023-05-06T07:59:12.088Z,47.86
2023-05-06T08:00:12.042Z,45.28
2023-05-06T08:01:12.082Z,48.50
2023-05-06T08:02:12.057Z,48.66
2023-05-06T08:03:12.159Z,48.02
2023-05-06T08:04:12.106Z,43.51
2023-05-06T08:05:12.350Z,43.83
2023-05-06T08:06:12.003Z,48.82
2023-05-06T08:07:12.091Z,47.53
2023-05-06T08:08:11.982Z,47.05
2023-05-06T08:09:14.864Z,44.79
2023-05-06T08:10:13.995Z,50.11
2023-05-06T08:11:11.979Z,46.89
2023-05-06T08:12:11.989Z,46.73
2023-05-06T08:13:12.013Z,48.34
2023-05-06T08:14:11.941Z,48.50
2023-05-06T08:15:12.048Z,47.21
2023-05-06T08:16:11.990Z,47.37
2023-05-06T08:17:11.959Z,47.53
2023-05-06T08:18:21.894Z,44.31
2023-05-06T08:19:13.912Z,48.18
2023-05-06T08:20:11.904Z,46.57
2023-05-06T08:21:11.933Z,49.95
2023-05-06T08:22:11.911Z,46.08
2023-05-06T08:23:11.934Z,43.18
2023-05-06T08:24:11.879Z,46.73
2023-05-06T08:25:12.168Z,46.57
2023-05-06T08:26:11.880Z,46.89
2023-05-06T08:27:12.862Z,48.66
2023-05-06T08:28:11.851Z,53.17
2023-05-06T08:29:11.852Z,48.02
2023-05-06T08:30:11.848Z,46.41
2023-05-06T08:31:11.897Z,45.92
2023-05-06T08:32:11.880Z,55.43
2023-05-06T08:33:11.829Z,49.15
2023-05-06T08:34:11.805Z,50.60
2023-05-06T08:35:12.163Z,53.66
2023-05-06T08:36:11.833Z,52.69
2023-05-06T08:37:11.798Z,48.34
2023-05-06T08:38:11.790Z,50.76
2023-05-06T08:39:11.908Z,48.98
2023-05-06T08:40:11.795Z,51.88
2023-05-06T08:41:11.789Z,53.98
2023-05-06T08:42:11.766Z,51.88
2023-05-06T08:43:11.757Z,51.56
2023-05-06T08:44:11.745Z,50.92
2023-05-06T08:45:11.903Z,53.82
2023-05-06T08:46:11.740Z,46.41
2023-05-06T08:47:12.728Z,53.82
2023-05-06T08:48:11.724Z,48.34
2023-05-06T08:49:11.717Z,48.82
2023-05-06T08:50:11.735Z,50.76
2023-05-06T08:51:11.692Z,50.11
2023-05-06T08:52:11.694Z,54.79
2023-05-06T08:53:11.677Z,50.43
2023-05-06T08:54:11.699Z,49.15
2023-05-06T08:55:11.981Z,42.54
2023-05-06T08:56:12.665Z,50.43
2023-05-06T08:57:12.564Z,48.98
2023-05-06T08:58:12.654Z,49.31
2023-05-06T08:59:11.660Z,46.73
2023-05-06T09:00:11.631Z,50.92
2023-05-06T09:01:11.667Z,49.31
2023-05-06T09:02:11.691Z,47.53
2023-05-06T09:03:11.674Z,49.47
2023-05-06T09:04:11.627Z,48.18
2023-05-06T09:05:11.763Z,46.41
2023-05-06T09:06:11.587Z,47.21
2023-05-06T09:07:11.689Z,52.21
2023-05-06T09:08:11.698Z,52.37
2023-05-06T09:09:12.595Z,47.37
2023-05-06T09:10:11.737Z,48.50
2023-05-06T09:11:11.632Z,50.43
2023-05-06T09:12:11.570Z,49.47
2023-05-06T09:13:11.603Z,52.85
2023-05-06T09:14:11.573Z,53.82
2023-05-06T09:15:11.850Z,48.98
2023-05-06T09:16:11.567Z,50.11
2023-05-06T09:17:11.591Z,50.92
2023-05-06T09:18:11.724Z,52.37
2023-05-06T09:19:11.507Z,49.79
2023-05-06T09:20:11.496Z,55.91
2023-05-06T09:21:11.491Z,54.46
2023-05-06T09:22:11.486Z,49.47
2023-05-06T09:23:11.494Z,47.37
2023-05-06T09:24:11.495Z,50.11
2023-05-06T09:25:11.813Z,50.43
2023-05-06T09:26:11.466Z,47.21
2023-05-06T09:27:12.339Z,50.92
2023-05-06T09:28:11.474Z,54.30
2023-05-06T09:29:11.437Z,48.82
2023-05-06T09:30:11.429Z,50.27
2023-05-06T09:31:11.471Z,48.50
2023-05-06T09:32:11.441Z,55.27
2023-05-06T09:33:11.478Z,48.98
2023-05-06T09:34:11.403Z,52.69
2023-05-06T09:35:11.552Z,56.56
2023-05-06T09:36:11.375Z,51.08
2023-05-06T09:37:11.399Z,54.30
2023-05-06T09:38:11.375Z,51.88
2023-05-06T09:39:11.356Z,53.01
2023-05-06T09:40:11.358Z,52.69
2023-05-06T09:41:11.378Z,51.72
2023-05-06T09:42:11.366Z,50.76
2023-05-06T09:43:11.448Z,51.24
2023-05-06T09:44:11.324Z,55.43
2023-05-06T09:45:12.495Z,49.47
2023-05-06T09:46:11.374Z,49.15
2023-05-06T09:47:11.306Z,52.85
2023-05-06T09:48:11.306Z,50.76
2023-05-06T09:49:11.287Z,53.33
2023-05-06T09:50:11.284Z,53.33
2023-05-06T09:51:11.296Z,53.33
2023-05-06T09:52:11.282Z,52.21
2023-05-06T09:53:11.268Z,49.47
2023-05-06T09:54:11.250Z,52.37
2023-05-06T09:55:11.488Z,52.53
2023-05-06T09:56:11.268Z,52.05
2023-05-06T09:57:11.233Z,48.02
2023-05-06T09:58:11.338Z,54.62
2023-05-06T09:59:11.333Z,49.95
2023-05-06T10:00:11.228Z,49.79
2023-05-06T10:01:12.039Z,49.47
2023-05-06T10:02:11.207Z,49.31
2023-05-06T10:03:11.332Z,48.82
2023-05-06T10:04:11.336Z,49.15
2023-05-06T10:05:12.683Z,49.31
2023-05-06T10:06:11.152Z,45.76
2023-05-06T10:07:11.149Z,46.25
2023-05-06T10:08:11.132Z,53.50
2023-05-06T10:09:11.132Z,54.46
2023-05-06T10:10:11.153Z,50.60
2023-05-06T10:11:11.125Z,56.07
2023-05-06T10:12:11.108Z,45.12
2023-05-06T10:13:11.167Z,46.57
2023-05-06T10:14:11.128Z,47.53
2023-05-06T10:15:11.425Z,44.63
2023-05-06T10:16:12.758Z,43.67
2023-05-06T10:17:11.064Z,51.08
2023-05-06T10:18:11.129Z,51.56
2023-05-06T10:19:11.068Z,51.72
2023-05-06T10:20:11.072Z,49.63
2023-05-06T10:21:11.029Z,48.98
2023-05-06T10:22:11.029Z,57.69
2023-05-06T10:23:11.037Z,54.46
2023-05-06T10:24:11.044Z,47.05
2023-05-06T10:25:11.233Z,46.25
2023-05-06T10:26:10.997Z,44.79
2023-05-06T10:27:10.988Z,50.27
2023-05-06T10:28:22.258Z,54.79
2023-05-06T10:29:12.025Z,50.43
2023-05-06T10:30:10.980Z,55.59
2023-05-06T10:31:11.063Z,47.86
2023-05-06T10:32:10.950Z,57.52
2023-05-06T10:33:10.967Z,55.75
2023-05-06T10:34:10.972Z,53.98
2023-05-06T10:35:11.111Z,53.01
2023-05-06T10:36:10.912Z,60.26
2023-05-06T10:37:10.901Z,54.30
2023-05-06T10:38:10.938Z,52.05
2023-05-06T10:39:10.892Z,47.53
2023-05-06T10:40:10.892Z,49.95
2023-05-06T10:41:10.868Z,50.92
2023-05-06T10:42:10.882Z,48.34
2023-05-06T10:43:10.879Z,51.40
2023-05-06T10:44:10.852Z,56.07
2023-05-06T10:45:11.047Z,52.05
2023-05-06T10:46:10.928Z,56.07
2023-05-06T10:47:10.864Z,50.92
2023-05-06T10:48:10.835Z,45.28
2023-05-06T10:49:10.840Z,55.11
2023-05-06T10:50:10.811Z,51.24
2023-05-06T10:51:10.805Z,54.62
2023-05-06T10:52:10.854Z,49.79
2023-05-06T10:53:10.784Z,50.60
2023-05-06T10:54:10.772Z,50.60
2023-05-06T10:55:10.992Z,52.53
2023-05-06T10:56:10.752Z,49.63
2023-05-06T10:57:10.782Z,49.31
2023-05-06T10:58:10.740Z,47.37
2023-05-06T10:59:10.753Z,50.43
2023-05-06T11:00:10.737Z,46.08
2023-05-06T11:01:10.755Z,48.02
2023-05-06T11:02:10.814Z,49.63
2023-05-06T11:03:10.877Z,53.01
2023-05-06T11:04:10.715Z,51.08
2023-05-06T11:05:10.938Z,46.08
2023-05-06T11:06:10.700Z,45.28
2023-05-06T11:07:10.696Z,52.05
2023-05-06T11:08:10.658Z,53.50
2023-05-06T11:09:10.649Z,48.34
2023-05-06T11:10:10.637Z,49.31
2023-05-06T11:11:10.671Z,55.11
2023-05-06T11:12:10.635Z,47.37
2023-05-06T11:13:10.674Z,48.50
2023-05-06T11:14:10.601Z,45.92
2023-05-06T11:15:10.770Z,49.47
2023-05-06T11:16:10.798Z,52.37
2023-05-06T11:17:10.624Z,47.70
2023-05-06T11:18:10.572Z,44.96
2023-05-06T11:19:10.581Z,50.60
2023-05-06T11:20:10.787Z,53.17
2023-05-06T11:21:10.591Z,51.24
2023-05-06T11:22:10.555Z,46.57
2023-05-06T11:23:10.547Z,48.98
2023-05-06T11:24:10.556Z,52.53
2023-05-06T11:25:10.577Z,53.50
2023-05-06T11:26:10.541Z,48.02
2023-05-06T11:27:10.508Z,57.36
2023-05-06T11:28:10.512Z,53.82
2023-05-06T11:29:10.497Z,53.01
2023-05-06T11:30:10.704Z,49.31
2023-05-06T11:31:10.486Z,48.02
2023-05-06T11:32:10.469Z,52.53
2023-05-06T11:33:10.527Z,45.28
2023-05-06T11:34:10.474Z,48.18
2023-05-06T11:35:10.516Z,45.28
2023-05-06T11:36:10.449Z,48.98
2023-05-06T11:37:10.441Z,52.85
2023-05-06T11:38:10.490Z,51.24
2023-05-06T11:39:10.441Z,41.73
2023-05-06T11:40:10.676Z,47.37
2023-05-06T11:41:10.396Z,48.98
2023-05-06T11:42:10.405Z,57.69
2023-05-06T11:43:10.384Z,53.98
2023-05-06T11:44:11.546Z,49.63
2023-05-06T11:45:11.379Z,49.95
2023-05-06T11:46:10.394Z,49.15
2023-05-06T11:47:10.354Z,50.60
2023-05-06T11:48:10.340Z,47.70
2023-05-06T11:49:10.372Z,48.82
2023-05-06T11:50:10.565Z,52.53
2023-05-06T11:51:10.321Z,47.05
2023-05-06T11:52:10.319Z,47.53
2023-05-06T11:53:10.325Z,46.57
2023-05-06T11:54:10.314Z,48.98
2023-05-06T11:55:10.297Z,48.98
2023-05-06T11:56:10.277Z,50.27
2023-05-06T11:57:10.279Z,51.56
2023-05-06T11:58:10.292Z,51.40
2023-05-06T11:59:10.246Z,48.50
2023-05-06T12:00:10.489Z,49.63
2023-05-06T12:01:10.246Z,43.18
2023-05-06T12:02:10.231Z,45.76
2023-05-06T12:03:10.330Z,54.30
2023-05-06T12:04:10.452Z,53.66
2023-05-06T12:05:10.202Z,52.05
2023-05-06T12:06:10.193Z,52.37
2023-05-06T12:07:10.202Z,53.82
2023-05-06T12:08:23.406Z,49.95
2023-05-06T12:09:12.174Z,46.73
2023-05-06T12:10:10.366Z,50.11
2023-05-06T12:11:10.157Z,54.95
2023-05-06T12:12:10.176Z,57.20
2023-05-06T12:13:10.238Z,54.46
2023-05-06T12:14:10.135Z,53.50
2023-05-06T12:15:10.129Z,54.14
2023-05-06T12:16:10.131Z,47.21
2023-05-06T12:17:10.158Z,56.56
2023-05-06T12:18:10.168Z,59.46
2023-05-06T12:19:10.092Z,50.76
2023-05-06T12:20:10.210Z,49.15
2023-05-06T12:21:10.074Z,57.04
2023-05-06T12:22:10.097Z,49.63
2023-05-06T12:23:10.114Z,49.63
2023-05-06T12:24:10.102Z,49.47
2023-05-06T12:25:10.206Z,51.72
2023-05-06T12:26:10.060Z,50.43
2023-05-06T12:27:10.079Z,51.88
2023-05-06T12:28:10.031Z,47.86
2023-05-06T12:29:10.029Z,49.47
2023-05-06T12:30:10.120Z,45.28
2023-05-06T12:31:10.028Z,52.85
2023-05-06T12:32:10.195Z,49.79
2023-05-06T12:33:09.986Z,47.05
2023-05-06T12:34:09.984Z,48.82
2023-05-06T12:35:09.981Z,50.76
2023-05-06T12:36:09.993Z,45.12
2023-05-06T12:37:09.960Z,48.98
2023-05-06T12:38:09.958Z,49.63
2023-05-06T12:39:09.999Z,50.27
2023-05-06T12:40:10.057Z,54.79
2023-05-06T12:41:09.961Z,49.47
2023-05-06T12:42:09.980Z,54.30
2023-05-06T12:43:09.908Z,48.82
2023-05-06T12:44:09.906Z,53.01
2023-05-06T12:45:09.885Z,55.59
2023-05-06T12:46:09.978Z,59.14
2023-05-06T12:47:09.916Z,48.34
2023-05-06T12:48:09.922Z,53.66
2023-05-06T12:49:09.864Z,49.95
2023-05-06T12:50:10.123Z,50.76
2023-05-06T12:51:09.865Z,56.24
2023-05-06T12:52:09.840Z,51.56